createdAt,value
2019-05-12T00:00:39.246Z,90.70
2019-05-12T00:03:08.596Z,90.70
2019-05-12T00:05:38.400Z,90.70
2019-05-12T00:08:08.259Z,90.30
2019-05-12T00:10:38.787Z,90.20
2019-05-12T00:13:08.628Z,90.40
2019-05-12T00:15:38.517Z,90.60
2019-05-12T00:18:09.148Z,90.50
2019-05-12T00:20:38.812Z,90.80
2019-05-12T00:23:23.071Z,90.20
2019-05-12T00:25:39.542Z,90.40
2019-05-12T00:28:08.737Z,90.20
2019-05-12T00:30:40.950Z,89.70
2019-05-12T00:33:10.122Z,90.00
2019-05-12T00:35:39.589Z,90.10
2019-05-12T00:38:09.427Z,90.50
2019-05-12T00:40:39.599Z,90.50
2019-05-12T00:43:09.488Z,90.30
2019-05-12T00:45:39.150Z,90.70
2019-05-12T00:48:10.202Z,91.10
2019-05-12T00:50:39.539Z,90.60
2019-05-12T00:53:09.471Z,90.30
2019-05-12T00:55:38.881Z,90.40
2019-05-12T00:58:08.935Z,90.20
2019-05-12T01:00:40.700Z,90.50
2019-05-12T01:03:09.513Z,90.30
2019-05-12T01:05:38.825Z,90.60
2019-05-12T01:08:09.411Z,89.80
2019-05-12T01:10:39.439Z,90.40
2019-05-12T01:13:09.056Z,90.50
2019-05-12T01:15:38.850Z,90.10
2019-05-12T01:18:09.503Z,90.10
2019-05-12T01:20:39.335Z,90.00
2019-05-12T01:23:09.058Z,89.90
2019-05-12T01:25:39.697Z,90.10
2019-05-12T01:28:09.521Z,90.30
2019-05-12T01:30:39.383Z,90.30
2019-05-12T01:33:09.289Z,90.10
2019-05-12T01:35:39.261Z,90.70
2019-05-12T01:38:08.617Z,90.70
2019-05-12T01:40:39.758Z,90.70
2019-05-12T01:43:09.236Z,91.00
2019-05-12T01:45:38.617Z,90.90
2019-05-12T01:48:09.118Z,90.90
2019-05-12T01:50:39.112Z,91.20
2019-05-12T01:53:08.768Z,91.30
2019-05-12T01:55:38.992Z,91.30
2019-05-12T01:58:08.866Z,91.30
2019-05-12T02:00:39.144Z,91.10
2019-05-12T02:03:09.438Z,91.00
2019-05-12T02:05:41.728Z,91.20
2019-05-12T02:08:15.576Z,91.40
2019-05-12T02:10:44.810Z,91.30
2019-05-12T02:13:14.017Z,91.10
2019-05-12T02:15:43.417Z,91.30
2019-05-12T02:18:12.730Z,91.00
2019-05-12T02:20:41.961Z,90.60
2019-05-12T02:23:11.144Z,91.20
2019-05-12T02:25:40.357Z,91.10
2019-05-12T02:28:09.661Z,91.00
2019-05-12T02:30:41.445Z,91.00
2019-05-12T02:33:10.135Z,91.00
2019-05-12T02:35:39.285Z,90.90
2019-05-12T02:38:08.469Z,91.10
2019-05-12T02:40:37.812Z,90.80
2019-05-12T02:43:07.077Z,90.90
2019-05-12T02:45:36.492Z,90.90
2019-05-12T02:48:05.994Z,91.10
2019-05-12T02:50:37.894Z,91.60
2019-05-12T02:53:08.069Z,91.20
2019-05-12T02:55:38.011Z,91.00
2019-05-12T02:58:07.289Z,90.80
2019-05-12T03:00:37.191Z,90.60
2019-05-12T03:03:10.175Z,91.00
2019-05-12T03:05:44.266Z,90.70
2019-05-12T03:08:15.475Z,90.40
2019-05-12T03:10:48.039Z,90.70
2019-05-12T03:13:17.233Z,90.00
2019-05-12T03:15:46.382Z,90.30
2019-05-12T03:18:15.570Z,90.40
2019-05-12T03:20:45.510Z,90.00
2019-05-12T03:23:18.975Z,89.80
2019-05-12T03:25:45.989Z,90.00
2019-05-12T03:28:16.040Z,89.50
2019-05-12T03:30:48.383Z,89.50
2019-05-12T03:33:19.390Z,88.80
2019-05-12T03:35:53.198Z,89.40
2019-05-12T03:38:18.286Z,88.30
2019-05-12T03:40:47.546Z,88.30
2019-05-12T03:43:16.776Z,89.30
2019-05-12T03:45:45.993Z,89.80
2019-05-12T03:48:15.329Z,90.20
2019-05-12T03:50:46.026Z,90.00
2019-05-12T03:53:16.089Z,89.50
2019-05-12T03:55:46.841Z,88.60
2019-05-12T03:58:16.518Z,89.70
2019-05-12T04:00:45.721Z,90.00
2019-05-12T04:03:15.562Z,90.10
2019-05-12T04:05:45.623Z,90.00
2019-05-12T04:08:15.915Z,90.00
2019-05-12T04:10:46.027Z,90.10
2019-05-12T04:13:15.758Z,90.20
2019-05-12T04:15:45.782Z,90.40
2019-05-12T04:18:16.292Z,90.40
2019-05-12T04:20:45.953Z,90.30
2019-05-12T04:23:15.657Z,90.70
2019-05-12T04:25:52.134Z,90.90
2019-05-12T04:28:16.024Z,90.90
2019-05-12T04:30:45.206Z,91.00
2019-05-12T04:33:15.534Z,90.90
2019-05-12T04:35:45.440Z,90.90
2019-05-12T04:38:15.337Z,90.80
2019-05-12T04:40:45.529Z,90.60
2019-05-12T04:43:15.280Z,90.80
2019-05-12T04:45:45.340Z,90.80
2019-05-12T04:48:20.291Z,90.90
2019-05-12T04:50:46.264Z,91.00
2019-05-12T04:53:15.397Z,91.00
2019-05-12T04:55:44.885Z,91.10
2019-05-12T04:58:15.620Z,90.90
2019-05-12T05:00:45.796Z,90.80
2019-05-12T05:03:15.319Z,90.60
2019-05-12T05:05:44.826Z,90.50
2019-05-12T05:08:19.168Z,90.80
2019-05-12T05:10:45.561Z,90.10
2019-05-12T05:13:15.249Z,90.40
2019-05-12T05:15:45.001Z,90.10
2019-05-12T05:18:14.391Z,90.20
2019-05-12T05:20:43.910Z,90.50
2019-05-12T05:23:14.315Z,90.30
2019-05-12T05:25:43.683Z,88.30
2019-05-12T05:28:14.573Z,89.80
2019-05-12T05:30:44.257Z,89.30
2019-05-12T05:33:14.540Z,90.10
2019-05-12T05:35:44.134Z,90.20
2019-05-12T05:38:19.210Z,90.00
2019-05-12T05:40:45.991Z,90.10
2019-05-12T05:43:18.650Z,90.10
2019-05-12T05:45:46.296Z,89.20
2019-05-12T05:48:15.487Z,89.80
2019-05-12T05:50:44.694Z,89.90
2019-05-12T05:53:19.392Z,89.80
2019-05-12T05:55:45.211Z,89.80
2019-05-12T05:58:15.467Z,90.00
2019-05-12T06:00:44.835Z,90.00
2019-05-12T06:03:22.634Z,89.90
2019-05-12T06:05:45.005Z,88.80
2019-05-12T06:08:16.201Z,89.60
2019-05-12T06:10:45.996Z,89.30
2019-05-12T06:13:15.212Z,90.30
2019-05-12T06:15:44.373Z,89.10
2019-05-12T06:18:13.738Z,89.70
2019-05-12T06:20:43.782Z,89.70
2019-05-12T06:23:14.779Z,89.90
2019-05-12T06:25:47.470Z,89.30
2019-05-12T06:28:14.923Z,89.20
2019-05-12T06:30:47.010Z,89.60
2019-05-12T06:33:14.969Z,89.00
2019-05-12T06:35:45.505Z,88.30
2019-05-12T06:38:14.920Z,88.60
2019-05-12T06:40:45.308Z,88.40
2019-05-12T06:43:15.037Z,88.30
2019-05-12T06:45:45.714Z,88.60
2019-05-12T06:48:19.362Z,89.00
2019-05-12T06:50:46.497Z,89.10
2019-05-12T06:53:20.056Z,89.10
2019-05-12T06:55:46.584Z,88.90
2019-05-12T06:58:26.287Z,89.00
2019-05-12T07:00:46.765Z,88.40
2019-05-12T07:03:19.553Z,88.40
2019-05-12T07:05:46.809Z,87.90
2019-05-12T07:08:20.118Z,88.10
2019-05-12T07:10:51.879Z,87.90
2019-05-12T07:13:23.020Z,87.30
2019-05-12T07:15:48.644Z,84.50
2019-05-12T07:18:25.289Z,83.60
2019-05-12T07:20:49.861Z,82.40
2019-05-12T07:23:19.547Z,82.40
2019-05-12T07:25:50.362Z,84.10
2019-05-12T07:28:19.561Z,84.60
2019-05-12T07:30:49.332Z,83.00
2019-05-12T07:33:18.780Z,82.70
2019-05-12T07:35:53.282Z,80.70
2019-05-12T07:38:25.629Z,81.30
2019-05-12T07:40:53.898Z,80.00
2019-05-12T07:43:24.907Z,79.40
2019-05-12T07:46:02.210Z,78.20
2019-05-12T07:48:25.792Z,77.20
2019-05-12T07:50:58.435Z,74.70
2019-05-12T07:53:26.431Z,74.00
2019-05-12T07:55:55.564Z,75.50
2019-05-12T07:58:24.933Z,74.60
2019-05-12T08:01:02.497Z,73.60
2019-05-12T08:03:25.381Z,71.60
2019-05-12T08:05:57.339Z,71.80
2019-05-12T08:08:25.582Z,71.10
2019-05-12T08:10:55.973Z,71.30
2019-05-12T08:13:25.537Z,70.30
2019-05-12T08:15:56.435Z,68.70
2019-05-12T08:18:30.785Z,68.00
2019-05-12T08:20:59.903Z,69.00
2019-05-12T08:23:27.769Z,69.20
2019-05-12T08:25:56.918Z,68.30
2019-05-12T08:28:34.995Z,67.50
2019-05-12T08:30:57.384Z,66.40
2019-05-12T08:33:26.602Z,68.20
2019-05-12T08:35:55.740Z,68.50
2019-05-12T08:38:25.161Z,68.80
2019-05-12T08:40:54.618Z,67.50
2019-05-12T08:43:24.251Z,68.00
2019-05-12T08:45:53.784Z,66.20
2019-05-12T08:48:24.983Z,65.80
2019-05-12T08:50:54.786Z,67.00
2019-05-12T08:53:26.229Z,68.00
2019-05-12T08:55:55.324Z,68.20
2019-05-12T08:58:31.639Z,69.70
2019-05-12T09:00:56.009Z,67.80
2019-05-12T09:03:29.809Z,70.00
2019-05-12T09:05:56.424Z,71.40
2019-05-12T09:08:26.417Z,71.80
2019-05-12T09:10:55.753Z,70.70
2019-05-12T09:13:24.955Z,66.30
2019-05-12T09:15:54.258Z,65.90
2019-05-12T09:18:28.497Z,65.10
2019-05-12T09:20:55.738Z,64.50
2019-05-12T09:23:25.185Z,65.80
2019-05-12T09:25:57.131Z,66.10
2019-05-12T09:28:25.467Z,66.10
2019-05-12T09:30:54.741Z,67.10
2019-05-12T09:33:29.530Z,64.30
2019-05-12T09:35:54.914Z,61.30
2019-05-12T09:38:26.435Z,58.40
2019-05-12T09:41:00.783Z,57.80
2019-05-12T09:43:26.807Z,56.30
2019-05-12T09:45:56.560Z,56.20
2019-05-12T09:48:25.950Z,57.80
2019-05-12T09:51:00.397Z,58.30
2019-05-12T09:53:26.128Z,63.50
2019-05-12T09:55:58.411Z,66.00
2019-05-12T09:58:27.950Z,67.20
2019-05-12T10:00:57.319Z,63.50
2019-05-12T10:03:30.868Z,66.80
2019-05-12T10:05:57.596Z,68.20
2019-05-12T10:08:29.226Z,68.50
2019-05-12T10:10:57.627Z,67.30
2019-05-12T10:13:30.113Z,64.20
2019-05-12T10:15:58.778Z,62.00
2019-05-12T10:18:29.382Z,60.20
2019-05-12T10:20:58.578Z,60.40
2019-05-12T10:23:27.839Z,57.10
2019-05-12T10:26:01.443Z,55.80
2019-05-12T10:28:27.920Z,53.50
2019-05-12T10:30:57.311Z,54.20
2019-05-12T10:33:26.474Z,55.30
2019-05-12T10:35:59.426Z,60.50
2019-05-12T10:38:26.686Z,63.00
2019-05-12T10:40:55.989Z,62.40
2019-05-12T10:43:25.279Z,64.70
2019-05-12T10:45:54.505Z,65.60
2019-05-12T10:48:23.728Z,64.70
2019-05-12T10:50:53.553Z,65.00
2019-05-12T10:53:23.647Z,64.60
2019-05-12T10:55:54.227Z,65.10
2019-05-12T10:58:24.838Z,64.90
2019-05-12T11:00:58.926Z,63.10
2019-05-12T11:03:25.502Z,60.20
2019-05-12T11:06:02.150Z,60.30
2019-05-12T11:08:25.561Z,59.20
2019-05-12T11:10:57.677Z,56.90
2019-05-12T11:13:25.664Z,57.50
2019-05-12T11:15:54.999Z,58.40
2019-05-12T11:18:30.233Z,58.60
2019-05-12T11:20:55.196Z,54.90
2019-05-12T11:23:24.618Z,54.70
2019-05-12T11:25:54.116Z,53.20
2019-05-12T11:28:24.436Z,52.80
2019-05-12T11:30:54.222Z,52.60
2019-05-12T11:33:23.884Z,52.10
2019-05-12T11:35:54.163Z,52.40
2019-05-12T11:38:24.401Z,54.10
2019-05-12T11:40:54.008Z,55.50
2019-05-12T11:43:24.851Z,55.80
2019-05-12T11:45:54.320Z,55.00
2019-05-12T11:48:23.795Z,53.60
2019-05-12T11:50:54.546Z,48.80
2019-05-12T11:53:30.370Z,50.00
2019-05-12T11:55:55.160Z,47.40
2019-05-12T11:58:24.329Z,47.50
2019-05-12T12:00:58.549Z,48.70
2019-05-12T12:03:26.316Z,50.20
2019-05-12T12:05:55.512Z,50.40
2019-05-12T12:08:26.401Z,52.20
2019-05-12T12:10:55.604Z,54.90
2019-05-12T12:13:29.723Z,55.80
2019-05-12T12:16:00.710Z,56.70
2019-05-12T12:18:26.961Z,56.30
2019-05-12T12:21:02.766Z,52.40
2019-05-12T12:23:27.107Z,52.80
2019-05-12T12:25:56.469Z,53.10
2019-05-12T12:28:25.701Z,53.70
2019-05-12T12:30:58.892Z,51.80
2019-05-12T12:33:25.973Z,50.70
2019-05-12T12:36:00.606Z,47.90
2019-05-12T12:38:26.426Z,49.40
2019-05-12T12:40:55.602Z,50.60
2019-05-12T12:43:25.089Z,51.30
2019-05-12T12:45:59.617Z,53.60
2019-05-12T12:48:29.939Z,55.60
2019-05-12T12:50:59.576Z,53.90
2019-05-12T12:53:28.839Z,52.30
2019-05-12T12:55:58.604Z,53.10
2019-05-12T12:58:31.367Z,52.20
2019-05-12T13:00:59.586Z,51.90
2019-05-12T13:03:30.073Z,51.10
2019-05-12T13:05:59.448Z,50.20
2019-05-12T13:08:28.993Z,48.40
2019-05-12T13:10:58.164Z,46.60
2019-05-12T13:13:27.424Z,46.10
2019-05-12T13:15:56.705Z,44.90
2019-05-12T13:18:32.936Z,51.00
2019-05-12T13:20:58.107Z,51.50
2019-05-12T13:23:38.111Z,50.70
2019-05-12T13:25:58.510Z,50.80
2019-05-12T13:28:27.819Z,50.70
2019-05-12T13:31:08.118Z,50.00
2019-05-12T13:33:28.000Z,49.60
2019-05-12T13:35:57.618Z,49.50
2019-05-12T13:38:30.494Z,48.90
2019-05-12T13:40:57.865Z,46.20
2019-05-12T13:43:27.076Z,46.70
2019-05-12T13:45:56.241Z,48.20
2019-05-12T13:48:25.477Z,47.40
2019-05-12T13:51:07.537Z,49.10
2019-05-12T13:53:25.632Z,50.20
2019-05-12T13:55:54.793Z,47.30
2019-05-12T13:58:28.183Z,48.50
2019-05-12T14:01:10.527Z,46.60
2019-05-12T14:03:27.919Z,45.00
2019-05-12T14:05:56.976Z,45.00
2019-05-12T14:08:26.184Z,46.10
2019-05-12T14:10:59.385Z,45.90
2019-05-12T14:13:26.432Z,46.30
2019-05-12T14:15:55.600Z,48.20
2019-05-12T14:18:24.766Z,47.90
2019-05-12T14:20:58.842Z,46.80
2019-05-12T14:23:25.032Z,45.50
2019-05-12T14:25:54.415Z,46.40
2019-05-12T14:28:23.771Z,45.10
2019-05-12T14:30:54.433Z,45.50
2019-05-12T14:33:24.599Z,46.00
2019-05-12T14:35:54.280Z,45.20
2019-05-12T14:38:28.385Z,43.10
2019-05-12T14:40:54.435Z,43.20
2019-05-12T14:43:24.172Z,43.30
2019-05-12T14:45:54.117Z,42.40
2019-05-12T14:48:23.616Z,40.90
2019-05-12T14:50:53.506Z,39.30
2019-05-12T14:53:23.687Z,39.80
2019-05-12T14:55:53.706Z,41.50
2019-05-12T14:58:23.763Z,42.30
2019-05-12T15:00:56.363Z,42.50
2019-05-12T15:03:24.387Z,41.30
2019-05-12T15:05:54.556Z,39.00
2019-05-12T15:08:35.719Z,39.30
2019-05-12T15:10:55.121Z,39.70
2019-05-12T15:13:24.376Z,42.10
2019-05-12T15:15:58.170Z,39.80
2019-05-12T15:18:24.626Z,40.30
2019-05-12T15:20:54.447Z,40.20
2019-05-12T15:23:33.055Z,42.40
2019-05-12T15:25:55.185Z,41.00
2019-05-12T15:28:24.384Z,39.80
2019-05-12T15:30:54.234Z,39.30
2019-05-12T15:33:24.347Z,40.70
2019-05-12T15:35:54.742Z,39.30
2019-05-12T15:38:24.223Z,39.20
2019-05-12T15:40:53.899Z,38.70
2019-05-12T15:43:24.423Z,40.90
2019-05-12T15:45:55.226Z,40.60
2019-05-12T15:48:26.023Z,40.00
2019-05-12T15:50:59.556Z,39.30
2019-05-12T15:53:27.178Z,38.30
2019-05-12T15:55:56.589Z,37.50
2019-05-12T15:58:25.814Z,38.20
2019-05-12T16:00:57.819Z,39.80
2019-05-12T16:03:26.558Z,40.70
2019-05-12T16:06:01.173Z,40.00
2019-05-12T16:08:27.240Z,39.80
2019-05-12T16:10:56.697Z,40.80
2019-05-12T16:13:26.039Z,40.00
2019-05-12T16:16:02.842Z,41.70
2019-05-12T16:18:26.702Z,40.80
2019-05-12T16:20:58.863Z,40.70
2019-05-12T16:23:30.073Z,40.80
2019-05-12T16:26:01.315Z,41.10
2019-05-12T16:28:28.903Z,42.30
2019-05-12T16:30:58.905Z,41.10
2019-05-12T16:33:29.088Z,40.10
2019-05-12T16:35:59.907Z,40.20
2019-05-12T16:38:29.142Z,41.40
2019-05-12T16:40:58.415Z,42.20
2019-05-12T16:43:29.290Z,42.50
2019-05-12T16:45:58.584Z,42.80
2019-05-12T16:48:32.927Z,43.70
2019-05-12T16:50:58.736Z,44.50
2019-05-12T16:53:29.854Z,43.30
2019-05-12T16:55:59.001Z,43.60
2019-05-12T16:58:33.130Z,43.10
2019-05-12T17:00:59.057Z,45.10
2019-05-12T17:03:28.226Z,43.90
2019-05-12T17:05:57.910Z,43.90
2019-05-12T17:08:27.388Z,43.60
2019-05-12T17:11:09.013Z,43.70
2019-05-12T17:13:27.498Z,44.20
2019-05-12T17:16:00.095Z,43.60
2019-05-12T17:18:27.684Z,42.30
2019-05-12T17:20:56.868Z,42.40
2019-05-12T17:23:26.041Z,42.90
2019-05-12T17:25:55.196Z,43.10
2019-05-12T17:28:24.483Z,41.30
2019-05-12T17:30:54.328Z,42.00
2019-05-12T17:33:27.578Z,43.70
2019-05-12T17:35:54.957Z,44.00
2019-05-12T17:38:25.295Z,44.00
2019-05-12T17:40:58.919Z,44.20
2019-05-12T17:43:25.938Z,43.60
2019-05-12T17:45:59.542Z,42.90
2019-05-12T17:48:26.127Z,42.60
2019-05-12T17:50:55.395Z,42.40
2019-05-12T17:53:24.582Z,42.70
2019-05-12T17:55:56.193Z,43.50
2019-05-12T17:58:29.681Z,43.30
2019-05-12T18:00:55.933Z,41.80
2019-05-12T18:03:25.808Z,41.10
2019-05-12T18:05:55.497Z,41.30
2019-05-12T18:08:32.924Z,41.70
2019-05-12T18:10:55.609Z,41.70
2019-05-12T18:13:27.926Z,41.10
2019-05-12T18:15:55.760Z,40.90
2019-05-12T18:18:32.817Z,41.30
2019-05-12T18:20:57.886Z,41.80
2019-05-12T18:23:30.354Z,41.50
2019-05-12T18:26:03.076Z,41.30
2019-05-12T18:28:29.531Z,41.70
2019-05-12T18:30:59.043Z,41.90
2019-05-12T18:33:33.894Z,42.80
2019-05-12T18:35:59.166Z,42.30
2019-05-12T18:38:31.605Z,43.50
2019-05-12T18:40:59.298Z,42.70
2019-05-12T18:43:28.571Z,43.10
2019-05-12T18:46:05.075Z,43.50
2019-05-12T18:48:28.738Z,44.10
2019-05-12T18:51:04.995Z,44.40
2019-05-12T18:53:31.884Z,44.40
2019-05-12T18:56:00.079Z,45.30
2019-05-12T18:58:31.115Z,45.60
2019-05-12T19:01:00.216Z,46.00
2019-05-12T19:03:37.499Z,45.80
2019-05-12T19:06:00.428Z,45.70
2019-05-12T19:08:29.622Z,45.90
2019-05-12T19:10:58.792Z,46.40
2019-05-12T19:13:28.230Z,47.40
2019-05-12T19:16:02.374Z,47.50
2019-05-12T19:18:32.534Z,48.70
2019-05-12T19:20:59.640Z,49.70
2019-05-12T19:23:34.893Z,50.50
2019-05-12T19:25:59.988Z,51.40
2019-05-12T19:28:29.181Z,53.40
2019-05-12T19:31:00.976Z,53.80
2019-05-12T19:33:29.533Z,55.70
2019-05-12T19:36:04.297Z,56.50
2019-05-12T19:38:29.690Z,57.30
2019-05-12T19:41:00.732Z,57.90
2019-05-12T19:43:29.820Z,58.40
2019-05-12T19:46:03.345Z,58.60
2019-05-12T19:48:35.088Z,59.10
2019-05-12T19:51:15.948Z,59.50
2019-05-12T19:53:33.227Z,60.40
2019-05-12T19:56:03.855Z,60.20
2019-05-12T19:58:34.040Z,60.30
2019-05-12T20:01:03.743Z,61.30
2019-05-12T20:03:33.557Z,62.00
2019-05-12T20:06:02.964Z,62.30
2019-05-12T20:08:32.210Z,62.90
2019-05-12T20:11:03.639Z,63.00
2019-05-12T20:13:36.064Z,63.40
2019-05-12T20:16:03.474Z,62.70
2019-05-12T20:18:36.092Z,61.90
2019-05-12T20:21:04.414Z,62.40
2019-05-12T20:23:34.060Z,62.50
2019-05-12T20:26:03.988Z,62.50
2019-05-12T20:28:34.598Z,62.50
2019-05-12T20:31:06.108Z,65.30
2019-05-12T20:33:35.450Z,63.70
2019-05-12T20:36:04.830Z,63.30
2019-05-12T20:38:36.613Z,63.50
2019-05-12T20:41:05.204Z,63.40
2019-05-12T20:43:38.116Z,63.80
2019-05-12T20:46:05.689Z,64.30
2019-05-12T20:48:34.861Z,64.80
2019-05-12T20:51:08.779Z,64.20
2019-05-12T20:53:36.648Z,64.70
2019-05-12T20:56:06.108Z,64.20
2019-05-12T20:58:43.014Z,64.80
2019-05-12T21:01:06.148Z,64.40
2019-05-12T21:03:39.812Z,65.30
2019-05-12T21:06:06.330Z,66.40
2019-05-12T21:08:35.777Z,67.20
2019-05-12T21:11:04.969Z,66.30
2019-05-12T21:13:34.573Z,66.30
2019-05-12T21:16:15.692Z,66.10
2019-05-12T21:18:47.117Z,67.20
2019-05-12T21:21:05.905Z,67.00
2019-05-12T21:23:35.126Z,66.20
2019-05-12T21:26:04.403Z,66.20
2019-05-12T21:28:37.126Z,66.80
2019-05-12T21:31:04.704Z,67.40
2019-05-12T21:33:39.962Z,67.50
2019-05-12T21:36:04.978Z,68.20
2019-05-12T21:38:34.201Z,69.10
2019-05-12T21:41:07.850Z,69.10
2019-05-12T21:43:34.483Z,68.60
2019-05-12T21:46:07.746Z,68.90
2019-05-12T21:48:34.573Z,68.70
2019-05-12T21:51:04.258Z,69.40
2019-05-12T21:53:34.507Z,68.30
2019-05-12T21:56:05.566Z,68.80
2019-05-12T21:58:35.084Z,68.60
2019-05-12T22:01:07.693Z,68.70
2019-05-12T22:03:37.017Z,69.60
2019-05-12T22:06:15.214Z,69.60
2019-05-12T22:08:37.269Z,69.40
2019-05-12T22:11:11.281Z,70.10
2019-05-12T22:13:37.680Z,70.40
2019-05-12T22:16:07.048Z,70.20
2019-05-12T22:18:36.386Z,70.00
2019-05-12T22:21:06.954Z,69.80
2019-05-12T22:23:36.524Z,70.80
2019-05-12T22:26:06.001Z,69.40
2019-05-12T22:28:40.561Z,69.40
2019-05-12T22:31:06.429Z,69.90
2019-05-12T22:33:40.381Z,70.10
2019-05-12T22:36:14.646Z,70.10
2019-05-12T22:38:37.980Z,70.80
2019-05-12T22:41:07.144Z,71.70
2019-05-12T22:43:40.840Z,70.50
2019-05-12T22:46:07.265Z,71.00
2019-05-12T22:48:40.468Z,71.20
2019-05-12T22:51:17.438Z,71.70
2019-05-12T22:53:38.379Z,71.00
2019-05-12T22:56:12.332Z,70.80
2019-05-12T22:58:38.608Z,70.20
2019-05-12T23:01:07.738Z,70.70
2019-05-12T23:03:36.998Z,70.10
2019-05-12T23:06:20.192Z,71.40
2019-05-12T23:08:38.905Z,71.10
2019-05-12T23:11:08.071Z,71.40
2019-05-12T23:13:40.977Z,69.90
2019-05-12T23:16:08.292Z,69.50
2019-05-12T23:18:37.468Z,69.50
2019-05-12T23:21:13.534Z,71.10
2019-05-12T23:23:37.597Z,71.10
2019-05-12T23:26:06.988Z,71.60
2019-05-12T23:28:40.583Z,70.20
2019-05-12T23:31:07.821Z,70.90
2019-05-12T23:33:36.973Z,71.20
2019-05-12T23:36:09.650Z,70.90
2019-05-12T23:38:37.120Z,71.40
2019-05-12T23:41:06.364Z,71.20
2019-05-12T23:43:35.513Z,70.50
2019-05-12T23:46:04.682Z,72.10
2019-05-12T23:48:33.842Z,71.60
2019-05-12T23:51:03.854Z,71.70
2019-05-12T23:53:33.895Z,73.10
2019-05-12T23:56:03.874Z,72.20
2019-05-12T23:58:33.456Z,69.80
